createdAt,value
2023-01-29T00:00:50.988Z,-1.40
2023-01-29T00:05:55.344Z,-1.44
2023-01-29T00:11:01.915Z,-1.46
2023-01-29T00:16:05.075Z,-1.50
2023-01-29T00:21:11.551Z,-1.54
2023-01-29T00:26:14.969Z,-1.62
2023-01-29T00:31:22.426Z,-1.70
2023-01-29T00:36:27.828Z,-1.74
2023-01-29T00:41:49.914Z,-1.81
2023-01-29T00:46:52.731Z,-1.93
2023-01-29T00:52:14.383Z,-1.99
2023-01-29T00:57:17.246Z,-2.07
2023-01-29T01:02:38.021Z,-2.11
2023-01-29T01:07:42.319Z,-2.27
2023-01-29T01:12:45.070Z,-2.45
2023-01-29T01:17:48.800Z,-2.47
2023-01-29T01:22:54.427Z,-2.55
2023-01-29T01:28:03.422Z,-2.66
2023-01-29T01:33:06.301Z,-2.72
2023-01-29T01:38:10.412Z,-2.78
2023-01-29T01:43:13.223Z,-2.88
2023-01-29T01:48:20.794Z,-2.88
2023-01-29T01:53:28.988Z,-2.94
2023-01-29T01:58:35.823Z,-3.03
2023-01-29T02:04:08.920Z,-3.10
2023-01-29T02:09:37.076Z,-3.14
2023-01-29T02:14:41.807Z,-3.19
2023-01-29T02:19:51.495Z,-3.19
2023-01-29T02:25:31.848Z,-3.16
2023-01-29T02:30:40.775Z,-3.16
2023-01-29T02:35:47.717Z,-3.18
2023-01-29T02:40:56.524Z,-3.23
2023-01-29T02:46:12.403Z,-3.30
2023-01-29T02:51:21.000Z,-3.38
2023-01-29T02:56:29.090Z,-3.39
2023-01-29T03:01:38.182Z,-3.46
2023-01-29T03:06:46.539Z,-3.50
2023-01-29T03:11:52.831Z,-3.68
2023-01-29T03:17:00.396Z,-3.64
2023-01-29T03:22:08.374Z,-3.70
2023-01-29T03:27:32.486Z,-3.80
2023-01-29T03:32:38.621Z,-3.77
2023-01-29T03:37:45.557Z,-3.84
2023-01-29T03:43:00.717Z,-3.91
2023-01-29T03:48:10.630Z,-3.99
2023-01-29T03:53:22.440Z,-3.99
2023-01-29T03:58:35.764Z,-4.00
2023-01-29T04:03:43.172Z,-4.02
2023-01-29T04:08:53.416Z,-4.05
2023-01-29T04:13:58.181Z,-4.09
2023-01-29T04:19:02.723Z,-4.13
2023-01-29T04:24:13.358Z,-4.08
2023-01-29T04:29:30.009Z,-4.12
2023-01-29T04:34:45.375Z,-4.14
2023-01-29T04:39:55.303Z,-4.18
2023-01-29T04:45:04.705Z,-4.26
2023-01-29T04:50:17.022Z,-4.25
2023-01-29T04:55:31.231Z,-4.32
2023-01-29T05:00:39.557Z,-4.38
2023-01-29T05:05:46.442Z,-4.37
2023-01-29T05:10:51.157Z,-4.39
2023-01-29T05:16:00.106Z,-4.49
2023-01-29T05:21:08.370Z,-4.35
2023-01-29T05:26:31.749Z,-4.25
2023-01-29T05:31:34.596Z,-4.17
2023-01-29T05:36:39.796Z,-4.08
2023-01-29T05:41:42.791Z,-4.03
2023-01-29T05:46:46.203Z,-4.07
2023-01-29T05:51:50.399Z,-3.99
2023-01-29T05:56:53.226Z,-3.88
2023-01-29T06:01:56.057Z,-3.77
2023-01-29T06:07:01.273Z,-3.67
2023-01-29T06:12:06.188Z,-3.66
2023-01-29T06:17:09.074Z,-3.75
2023-01-29T06:22:13.267Z,-3.77
2023-01-29T06:27:16.024Z,-3.65
2023-01-29T06:32:18.956Z,-3.60
2023-01-29T06:37:23.215Z,-3.60
2023-01-29T06:42:28.013Z,-3.51
2023-01-29T06:47:31.031Z,-3.46
2023-01-29T06:52:35.149Z,-3.37
2023-01-29T06:57:37.844Z,-3.29
2023-01-29T07:02:40.667Z,-3.19
2023-01-29T07:07:45.196Z,-3.08
2023-01-29T07:12:48.003Z,-3.10
2023-01-29T07:17:58.632Z,-2.99
2023-01-29T07:23:02.707Z,-2.94
2023-01-29T07:28:06.007Z,-2.95
2023-01-29T07:33:10.872Z,-2.83
2023-01-29T07:38:15.003Z,-2.72
2023-01-29T07:43:17.807Z,-2.67
2023-01-29T07:48:20.718Z,-2.55
2023-01-29T07:53:24.877Z,-2.42
2023-01-29T07:58:27.651Z,-2.37
2023-01-29T08:03:30.458Z,-2.36
2023-01-29T08:08:34.659Z,-2.20
2023-01-29T08:13:37.374Z,-2.07
2023-01-29T08:18:42.396Z,-1.93
2023-01-29T08:23:46.711Z,-1.77
2023-01-29T08:28:49.470Z,-1.73
2023-01-29T08:33:52.215Z,-1.61
2023-01-29T08:38:56.399Z,-1.53
2023-01-29T08:44:00.341Z,-1.45
2023-01-29T08:49:03.057Z,-1.50
2023-01-29T08:54:07.400Z,-1.45
2023-01-29T08:59:10.775Z,-1.47
2023-01-29T09:04:13.453Z,-1.54
2023-01-29T09:09:18.403Z,-1.63
2023-01-29T09:14:21.274Z,-1.38
2023-01-29T09:19:24.106Z,-1.40
2023-01-29T09:24:28.251Z,-1.29
2023-01-29T09:29:31.108Z,-1.20
2023-01-29T09:34:33.930Z,-1.26
2023-01-29T09:39:38.192Z,-1.07
2023-01-29T09:45:00.760Z,-0.96
2023-01-29T09:50:08.427Z,-0.94
2023-01-29T09:55:20.731Z,-0.79
2023-01-29T10:00:26.496Z,-0.76
2023-01-29T10:05:40.225Z,-0.81
2023-01-29T10:10:51.391Z,-0.29
2023-01-29T10:16:16.271Z,-0.58
2023-01-29T10:21:42.650Z,-0.49
2023-01-29T10:26:46.897Z,-0.50
2023-01-29T10:31:55.039Z,-0.03
2023-01-29T10:36:57.932Z,0.48
2023-01-29T10:42:16.109Z,0.81
2023-01-29T10:47:35.638Z,0.82
2023-01-29T10:52:51.006Z,1.20
2023-01-29T10:58:03.183Z,0.87
2023-01-29T11:03:26.862Z,0.56
2023-01-29T11:08:37.431Z,0.51
2023-01-29T11:13:46.569Z,0.52
2023-01-29T11:18:51.574Z,0.36
2023-01-29T11:24:07.924Z,0.59
2023-01-29T11:29:35.465Z,1.72
2023-01-29T11:34:57.560Z,1.21
2023-01-29T11:40:00.450Z,1.76
2023-01-29T11:45:25.754Z,1.75
2023-01-29T11:50:31.793Z,1.91
2023-01-29T11:55:49.913Z,2.15
2023-01-29T12:00:55.960Z,2.97
2023-01-29T12:06:01.842Z,2.82
2023-01-29T12:11:13.916Z,3.77
2023-01-29T12:16:28.942Z,4.43
2023-01-29T12:21:37.898Z,4.18
2023-01-29T12:26:48.290Z,5.27
2023-01-29T12:32:00.306Z,4.35
2023-01-29T12:37:12.691Z,4.10
2023-01-29T12:42:20.167Z,3.90
2023-01-29T12:47:31.392Z,3.77
2023-01-29T12:52:41.185Z,3.65
2023-01-29T12:57:48.228Z,3.38
2023-01-29T13:02:57.983Z,3.40
2023-01-29T13:08:07.248Z,3.40
2023-01-29T13:13:20.356Z,2.93
2023-01-29T13:18:41.608Z,2.57
2023-01-29T13:23:48.066Z,2.96
2023-01-29T13:28:52.994Z,2.46
2023-01-29T13:34:04.976Z,2.86
2023-01-29T13:39:09.903Z,2.55
2023-01-29T13:44:23.391Z,2.41
2023-01-29T13:49:32.783Z,2.22
2023-01-29T13:54:35.954Z,2.05
2023-01-29T13:59:54.569Z,2.26
2023-01-29T14:05:31.269Z,2.13
2023-01-29T14:10:37.403Z,1.73
2023-01-29T14:15:40.485Z,1.56
2023-01-29T14:20:53.998Z,1.70
2023-01-29T14:26:00.615Z,1.70
2023-01-29T14:31:04.607Z,1.44
2023-01-29T14:36:12.025Z,1.36
2023-01-29T14:41:24.556Z,1.16
2023-01-29T14:46:45.300Z,1.17
2023-01-29T14:51:48.359Z,1.21
2023-01-29T14:57:01.515Z,1.04
2023-01-29T15:02:15.357Z,1.10
2023-01-29T15:07:28.062Z,1.23
2023-01-29T15:12:38.208Z,1.05
2023-01-29T15:17:47.015Z,1.09
2023-01-29T15:22:49.738Z,0.98
2023-01-29T15:27:55.839Z,1.04
2023-01-29T15:32:59.162Z,1.01
2023-01-29T15:38:04.866Z,0.91
2023-01-29T15:43:22.423Z,0.81
2023-01-29T15:48:32.962Z,0.67
2023-01-29T15:53:39.259Z,0.54
2023-01-29T15:58:44.034Z,0.45
2023-01-29T16:03:50.434Z,0.33
2023-01-29T16:08:55.331Z,0.23
2023-01-29T16:14:00.211Z,0.12
2023-01-29T16:19:03.000Z,0.01
2023-01-29T16:24:09.837Z,-0.05
2023-01-29T16:29:16.956Z,-0.17
2023-01-29T16:34:26.940Z,-0.24
2023-01-29T16:39:33.684Z,-0.34
2023-01-29T16:44:40.274Z,-0.46
2023-01-29T16:49:50.678Z,-0.64
2023-01-29T16:54:54.537Z,-0.74
2023-01-29T17:00:02.738Z,-0.79
2023-01-29T17:05:09.620Z,-0.95
2023-01-29T17:10:17.868Z,-0.88
2023-01-29T17:15:46.530Z,-0.84
2023-01-29T17:20:50.341Z,-0.89
2023-01-29T17:25:53.172Z,-0.87
2023-01-29T17:31:06.340Z,-0.90
2023-01-29T17:36:12.512Z,-0.94
2023-01-29T17:41:22.311Z,-0.95
2023-01-29T17:46:27.398Z,-1.02
2023-01-29T17:51:30.114Z,-1.12
2023-01-29T17:56:32.816Z,-1.14
2023-01-29T18:01:36.873Z,-1.12
2023-01-29T18:06:41.096Z,-1.13
2023-01-29T18:11:44.209Z,-1.08
2023-01-29T18:16:48.491Z,-1.06
2023-01-29T18:21:52.391Z,-1.00
2023-01-29T18:26:55.215Z,-0.97
2023-01-29T18:31:59.574Z,-0.93
2023-01-29T18:37:02.458Z,-0.99
2023-01-29T18:42:05.544Z,-0.95
2023-01-29T18:47:09.859Z,-0.97
2023-01-29T18:52:12.723Z,-1.02
2023-01-29T18:58:28.042Z,-1.04
2023-01-29T19:02:39.885Z,-1.06
2023-01-29T19:07:42.662Z,-1.05
2023-01-29T19:12:45.660Z,-1.00
2023-01-29T19:17:49.940Z,-1.00
2023-01-29T19:22:52.746Z,-0.94
2023-01-29T19:27:55.515Z,-0.95
2023-01-29T19:32:59.743Z,-0.94
2023-01-29T19:38:02.509Z,-0.95
2023-01-29T19:43:05.889Z,-0.91
2023-01-29T19:48:10.877Z,-0.89
2023-01-29T19:53:14.078Z,-0.80
2023-01-29T19:58:16.844Z,-0.87
2023-01-29T20:03:21.046Z,-0.88
2023-01-29T20:08:23.900Z,-0.76
2023-01-29T20:13:26.820Z,-0.76
2023-01-29T20:18:30.936Z,-0.76
2023-01-29T20:23:38.165Z,-0.72
2023-01-29T20:28:41.420Z,-0.72
2023-01-29T20:33:45.878Z,-0.66
2023-01-29T20:38:48.645Z,-0.69
2023-01-29T20:43:51.474Z,-0.61
2023-01-29T20:48:56.590Z,-0.65
2023-01-29T20:53:59.890Z,-0.55
2023-01-29T20:59:03.251Z,-0.57
2023-01-29T21:04:07.393Z,-0.54
2023-01-29T21:09:11.149Z,-0.50
2023-01-29T21:14:14.193Z,-0.44
2023-01-29T21:19:18.480Z,-0.48
2023-01-29T21:24:21.351Z,-0.43
2023-01-29T21:29:24.079Z,-0.43
2023-01-29T21:34:28.307Z,-0.43
2023-01-29T21:39:31.095Z,-0.39
2023-01-29T21:44:34.515Z,-0.35
2023-01-29T21:49:40.001Z,-0.36
2023-01-29T21:54:46.902Z,-0.31
2023-01-29T21:59:52.714Z,-0.28
2023-01-29T22:05:16.394Z,-0.28
2023-01-29T22:10:21.788Z,-0.29
2023-01-29T22:15:24.859Z,-0.25
2023-01-29T22:20:31.051Z,-0.25
2023-01-29T22:25:34.084Z,-0.25
2023-01-29T22:30:36.915Z,-0.24
2023-01-29T22:35:41.073Z,-0.22
2023-01-29T22:40:50.414Z,-0.22
2023-01-29T22:45:53.129Z,-0.19
2023-01-29T22:51:10.435Z,-0.16
2023-01-29T22:56:13.335Z,-0.16
2023-01-29T23:01:19.363Z,-0.14
2023-01-29T23:06:23.861Z,-0.11
2023-01-29T23:11:26.607Z,-0.07
2023-01-29T23:16:29.570Z,-0.10
2023-01-29T23:21:33.647Z,-0.08
2023-01-29T23:26:54.041Z,-0.02
2023-01-29T23:31:56.792Z,-0.03
2023-01-29T23:37:00.979Z,0.01
2023-01-29T23:42:03.716Z,0.02
2023-01-29T23:47:06.606Z,0.03
2023-01-29T23:52:10.732Z,0.01
2023-01-29T23:57:13.474Z,0.01
